Ana Sayfa
METAR-TAF:

METAR-TAF

Havaalanları :

Afyon, Türkiye

Afyon Havalimanı

Enlem: 38-45N, Boylam: 030-32E, yükseklik: 1034 m

Güncel hava durumu gözlemi

Rapor saat 06:40 UTC de 15 saat ve 46 dakika önce yapıldı.
Rüzgar değişken yönden 2 kt
Sıcaklık 2°C
Nem 100%
Basınç 1011 hPa
Görüş mesafesi: 2000 m
Pus

METAR: LTAH 230640Z VRB02KT 2000 BR NSC 02/02 Q1011 RMK RWY13 VRB02KT

Saat: 01:26 (22:26 UTC)

Tahmin

Rapor saat 13:40 UTC de 8 saat ve 46 dakika önce yapıldı.
Ayın 23'si saat 15 UTC'den ayın 23'si saat 24 UTC'ye kadar geçerli Tahmin
Rüzgar değişken yönden 2 kt
Görüş mesafesi 10 km veya daha fazla
4000 ft yükseklikte parçalı bulutlu
10000 ft yükseklikte parçalı çok bulutlu
Geçici
ayın 23'si saat 15 UTC'den ayın 23'si saat 18 UTC'ye kadar
3000 ft yükseklikte parçalı çok bulutlu
hafif sağanak yağmurlar

TAF: LTAH 231340Z 2315/2324 VRB02KT 9999 SCT040 BKN100 TEMPO 2315/2318 -SHRA BKN030

4.000'den fazla havaalanı için hava durumu gözlemleri ve tahminleri (METAR ve TAF raporları).

Kullanılabilir istasyonlar harita üzerinde sarı ve kırmızı noktalarla gösterilir.

İstasyonun adını görmek için fareyi noktanın üzerinde gezdirin.

Sonrasında hava gözlem ve tahminlerini görmek için tıklayın.

Haritayı değiştirmek için: yaklaştırmak için siyah artı işaretli yeşil düğmeye ve uzaklaştırmak için de eksi işaretli düğmeye hızla tıklayın; bitişik haritalar için yeşil okları kullanın.


METAR-TAF: